sensor_id;sensor_type;location;lat;lon;timestamp;pressure;altitude;pressure_sealevel;temperature;humidity
53960;BME280;39866;48.638;-2.020;2023-01-10T00:00:22;101772.41;;;11.84;63.65
53960;BME280;39866;48.638;-2.020;2023-01-10T00:02:49;101772.97;;;12.02;63.27
53960;BME280;39866;48.638;-2.020;2023-01-10T00:05:15;101773.09;;;11.94;63.62
53960;BME280;39866;48.638;-2.020;2023-01-10T00:07:41;101769.59;;;11.90;63.71
53960;BME280;39866;48.638;-2.020;2023-01-10T00:10:07;101761.47;;;11.98;63.55
53960;BME280;39866;48.638;-2.020;2023-01-10T00:12:32;101763.16;;;12.02;63.70
53960;BME280;39866;48.638;-2.020;2023-01-10T00:15:16;101766.16;;;11.85;63.05
53960;BME280;39866;48.638;-2.020;2023-01-10T00:17:41;101788.13;;;12.00;63.34
53960;BME280;39866;48.638;-2.020;2023-01-10T00:20:07;101773.28;;;11.82;63.37
53960;BME280;39866;48.638;-2.020;2023-01-10T00:22:33;101768.41;;;12.07;63.11
53960;BME280;39866;48.638;-2.020;2023-01-10T00:24:58;101775.28;;;12.20;62.96
53960;BME280;39866;48.638;-2.020;2023-01-10T00:27:23;101772.59;;;12.22;62.95
53960;BME280;39866;48.638;-2.020;2023-01-10T00:29:49;101757.78;;;12.04;63.12
53960;BME280;39866;48.638;-2.020;2023-01-10T00:32:19;101768.47;;;12.04;62.99
53960;BME280;39866;48.638;-2.020;2023-01-10T00:34:45;101773.81;;;12.05;63.22
53960;BME280;39866;48.638;-2.020;2023-01-10T00:37:10;101773.53;;;12.19;62.60
53960;BME280;39866;48.638;-2.020;2023-01-10T00:39:35;101777.94;;;12.22;62.72
53960;BME280;39866;48.638;-2.020;2023-01-10T00:42:01;101767.28;;;12.20;62.90
53960;BME280;39866;48.638;-2.020;2023-01-10T00:44:45;101768.78;;;11.88;63.48
53960;BME280;39866;48.638;-2.020;2023-01-10T00:47:14;101773.81;;;12.05;63.43
53960;BME280;39866;48.638;-2.020;2023-01-10T00:49:40;101765.69;;;12.10;63.30
53960;BME280;39866;48.638;-2.020;2023-01-10T00:52:05;101768.19;;;12.19;62.67
53960;BME280;39866;48.638;-2.020;2023-01-10T00:54:31;101772.91;;;12.05;62.91
53960;BME280;39866;48.638;-2.020;2023-01-10T00:56:56;101778.69;;;12.28;62.68
53960;BME280;39866;48.638;-2.020;2023-01-10T00:59:22;101778.69;;;12.28;63.02
53960;BME280;39866;48.638;-2.020;2023-01-10T01:01:48;101783.16;;;12.29;62.40
53960;BME280;39866;48.638;-2.020;2023-01-10T01:04:14;101792.44;;;12.07;63.36
53960;BME280;39866;48.638;-2.020;2023-01-10T01:06:42;101789.59;;;12.16;63.17
53960;BME280;39866;48.638;-2.020;2023-01-10T01:09:07;101791.47;;;12.12;63.16
53960;BME280;39866;48.638;-2.020;2023-01-10T01:11:33;101790.34;;;12.24;62.47
53960;BME280;39866;48.638;-2.020;2023-01-10T01:13:58;101781.59;;;12.18;62.84
53960;BME280;39866;48.638;-2.020;2023-01-10T01:16:23;101786.59;;;12.34;62.51
53960;BME280;39866;48.638;-2.020;2023-01-10T01:18:49;101785.63;;;12.38;62.74
53960;BME280;39866;48.638;-2.020;2023-01-10T01:21:14;101780.09;;;12.48;62.18
53960;BME280;39866;48.638;-2.020;2023-01-10T01:23:39;101774.06;;;12.36;62.04
53960;BME280;39866;48.638;-2.020;2023-01-10T01:26:05;101774.91;;;12.42;62.09
53960;BME280;39866;48.638;-2.020;2023-01-10T01:28:30;101770.03;;;12.15;62.17
53960;BME280;39866;48.638;-2.020;2023-01-10T01:30:56;101764.81;;;12.09;62.78
53960;BME280;39866;48.638;-2.020;2023-01-10T01:33:21;101753.88;;;12.23;62.16
53960;BME280;39866;48.638;-2.020;2023-01-10T01:35:48;101759.94;;;12.31;62.42
53960;BME280;39866;48.638;-2.020;2023-01-10T01:38:14;101759.44;;;12.56;61.81
53960;BME280;39866;48.638;-2.020;2023-01-10T01:40:40;101756.91;;;12.50;61.88
53960;BME280;39866;48.638;-2.020;2023-01-10T01:43:27;101764.78;;;12.11;62.04
53960;BME280;39866;48.638;-2.020;2023-01-10T01:45:54;101758.72;;;12.49;61.44
53960;BME280;39866;48.638;-2.020;2023-01-10T01:50:57;101750.59;;;12.54;61.57
53960;BME280;39866;48.638;-2.020;2023-01-10T01:53:33;101744.69;;;12.38;61.71
53960;BME280;39866;48.638;-2.020;2023-01-10T01:56:07;101746.72;;;12.25;62.11
53960;BME280;39866;48.638;-2.020;2023-01-10T01:58:43;101748.44;;;12.29;62.25
53960;BME280;39866;48.638;-2.020;2023-01-10T02:01:11;101757.59;;;12.14;62.02
53960;BME280;39866;48.638;-2.020;2023-01-10T02:03:39;101753.78;;;12.28;62.08
53960;BME280;39866;48.638;-2.020;2023-01-10T02:06:05;101749.97;;;12.41;61.81
53960;BME280;39866;48.638;-2.020;2023-01-10T02:08:31;101766.25;;;12.29;61.82
53960;BME280;39866;48.638;-2.020;2023-01-10T02:11:04;101754.09;;;12.12;62.65
53960;BME280;39866;48.638;-2.020;2023-01-10T02:13:33;101760.41;;;12.08;63.03
53960;BME280;39866;48.638;-2.020;2023-01-10T02:15:59;101755.06;;;12.07;62.89
53960;BME280;39866;48.638;-2.020;2023-01-10T02:18:25;101756.34;;;12.32;62.52
53960;BME280;39866;48.638;-2.020;2023-01-10T02:37:39;101773.34;;;12.28;65.10
53960;BME280;39866;48.638;-2.020;2023-01-10T02:40:33;101774.50;;;12.15;66.05
53960;BME280;39866;48.638;-2.020;2023-01-10T02:43:15;101766.53;;;12.13;66.75
53960;BME280;39866;48.638;-2.020;2023-01-10T02:45:54;101770.75;;;12.25;66.58
53960;BME280;39866;48.638;-2.020;2023-01-10T02:48:21;101778.31;;;12.02;67.76
53960;BME280;39866;48.638;-2.020;2023-01-10T02:50:58;101775.69;;;12.00;68.55
53960;BME280;39866;48.638;-2.020;2023-01-10T03:07:52;101776.75;;;11.90;69.70
53960;BME280;39866;48.638;-2.020;2023-01-10T03:10:36;101768.81;;;11.85;69.47
53960;BME280;39866;48.638;-2.020;2023-01-10T03:13:18;101766.72;;;12.03;69.67
53960;BME280;39866;48.638;-2.020;2023-01-10T03:15:46;101761.50;;;11.97;69.79
53960;BME280;39866;48.638;-2.020;2023-01-10T03:18:19;101761.19;;;12.12;69.58
53960;BME280;39866;48.638;-2.020;2023-01-10T03:20:48;101748.75;;;12.12;69.51
53960;BME280;39866;48.638;-2.020;2023-01-10T03:23:16;101754.88;;;12.16;69.52
53960;BME280;39866;48.638;-2.020;2023-01-10T03:25:45;101754.19;;;12.06;69.62
53960;BME280;39866;48.638;-2.020;2023-01-10T03:28:15;101746.38;;;11.96;69.68
53960;BME280;39866;48.638;-2.020;2023-01-10T03:30:54;101732.44;;;11.80;69.94
53960;BME280;39866;48.638;-2.020;2023-01-10T03:33:26;101729.56;;;11.92;70.10
53960;BME280;39866;48.638;-2.020;2023-01-10T03:38:43;101725.25;;;11.85;70.54
53960;BME280;39866;48.638;-2.020;2023-01-10T03:44:18;101710.81;;;11.95;70.65
53960;BME280;39866;48.638;-2.020;2023-01-10T03:49:52;101711.50;;;12.06;70.35
53960;BME280;39866;48.638;-2.020;2023-01-10T03:52:19;101711.28;;;12.17;70.30
53960;BME280;39866;48.638;-2.020;2023-01-10T03:54:45;101700.53;;;12.20;70.12
53960;BME280;39866;48.638;-2.020;2023-01-10T03:57:21;101689.75;;;12.26;69.83
53960;BME280;39866;48.638;-2.020;2023-01-10T03:59:53;101675.72;;;12.17;70.10
53960;BME280;39866;48.638;-2.020;2023-01-10T04:02:19;101662.97;;;12.29;69.84
53960;BME280;39866;48.638;-2.020;2023-01-10T04:04:44;101660.72;;;12.09;70.23
53960;BME280;39866;48.638;-2.020;2023-01-10T04:07:10;101659.94;;;12.04;70.70
53960;BME280;39866;48.638;-2.020;2023-01-10T04:09:35;101641.00;;;12.15;70.31
53960;BME280;39866;48.638;-2.020;2023-01-10T04:12:00;101646.25;;;12.21;70.32
53960;BME280;39866;48.638;-2.020;2023-01-10T04:14:26;101649.75;;;12.23;70.09
53960;BME280;39866;48.638;-2.020;2023-01-10T04:16:52;101644.81;;;12.05;70.08
53960;BME280;39866;48.638;-2.020;2023-01-10T04:19:17;101642.00;;;12.11;70.40
53960;BME280;39866;48.638;-2.020;2023-01-10T04:21:43;101639.97;;;12.22;69.89
53960;BME280;39866;48.638;-2.020;2023-01-10T04:24:08;101645.53;;;12.11;70.15
53960;BME280;39866;48.638;-2.020;2023-01-10T04:26:33;101643.75;;;12.12;70.31
53960;BME280;39866;48.638;-2.020;2023-01-10T04:28:59;101639.47;;;12.03;70.67
53960;BME280;39866;48.638;-2.020;2023-01-10T04:31:24;101635.94;;;12.03;70.62
53960;BME280;39866;48.638;-2.020;2023-01-10T04:33:51;101635.00;;;12.04;70.59
53960;BME280;39866;48.638;-2.020;2023-01-10T04:36:16;101626.13;;;12.03;70.56
53960;BME280;39866;48.638;-2.020;2023-01-10T04:38:42;101596.94;;;11.96;70.20
53960;BME280;39866;48.638;-2.020;2023-01-10T04:41:07;101616.69;;;11.87;71.00
53960;BME280;39866;48.638;-2.020;2023-01-10T04:43:33;101606.47;;;12.07;70.58
53960;BME280;39866;48.638;-2.020;2023-01-10T04:45:59;101598.81;;;11.90;71.14
53960;BME280;39866;48.638;-2.020;2023-01-10T04:48:24;101595.13;;;11.98;70.87
53960;BME280;39866;48.638;-2.020;2023-01-10T04:50:52;101589.16;;;11.85;71.40
53960;BME280;39866;48.638;-2.020;2023-01-10T04:53:18;101596.94;;;11.96;71.17
53960;BME280;39866;48.638;-2.020;2023-01-10T04:55:43;101590.03;;;11.85;71.32
53960;BME280;39866;48.638;-2.020;2023-01-10T04:58:09;101590.81;;;11.92;71.43
53960;BME280;39866;48.638;-2.020;2023-01-10T05:00:34;101587.94;;;12.00;71.48
53960;BME280;39866;48.638;-2.020;2023-01-10T05:03:00;101585.28;;;12.00;71.51
53960;BME280;39866;48.638;-2.020;2023-01-10T05:05:25;101580.13;;;11.90;71.36
53960;BME280;39866;48.638;-2.020;2023-01-10T05:07:52;101564.13;;;11.92;71.48
53960;BME280;39866;48.638;-2.020;2023-01-10T05:10:17;101558.06;;;11.84;71.85
53960;BME280;39866;48.638;-2.020;2023-01-10T05:12:44;101545.09;;;11.62;72.12
53960;BME280;39866;48.638;-2.020;2023-01-10T05:15:10;101550.84;;;11.87;72.18
53960;BME280;39866;48.638;-2.020;2023-01-10T05:17:35;101548.16;;;11.89;71.83
53960;BME280;39866;48.638;-2.020;2023-01-10T05:20:00;101541.47;;;12.10;71.41
53960;BME280;39866;48.638;-2.020;2023-01-10T05:22:26;101537.59;;;11.84;72.32
53960;BME280;39866;48.638;-2.020;2023-01-10T05:24:51;101529.34;;;11.52;72.47
53960;BME280;39866;48.638;-2.020;2023-01-10T05:27:16;101522.88;;;11.62;72.63
53960;BME280;39866;48.638;-2.020;2023-01-10T05:29:42;101517.59;;;11.59;72.79
53960;BME280;39866;48.638;-2.020;2023-01-10T05:32:07;101519.91;;;11.77;72.65
53960;BME280;39866;48.638;-2.020;2023-01-10T05:34:33;101491.56;;;11.28;73.98
53960;BME280;39866;48.638;-2.020;2023-01-10T05:36:58;101477.97;;;11.42;73.79
53960;BME280;39866;48.638;-2.020;2023-01-10T05:39:24;101471.13;;;11.72;73.32
53960;BME280;39866;48.638;-2.020;2023-01-10T05:41:49;101469.84;;;11.47;73.56
53960;BME280;39866;48.638;-2.020;2023-01-10T05:44:14;101460.50;;;11.69;73.22
53960;BME280;39866;48.638;-2.020;2023-01-10T05:46:40;101452.78;;;11.57;72.97
53960;BME280;39866;48.638;-2.020;2023-01-10T05:49:05;101458.47;;;11.40;73.63
53960;BME280;39866;48.638;-2.020;2023-01-10T05:51:30;101463.28;;;11.64;73.35
53960;BME280;39866;48.638;-2.020;2023-01-10T05:53:56;101456.09;;;11.66;72.95
53960;BME280;39866;48.638;-2.020;2023-01-10T05:56:23;101442.59;;;11.74;73.05
53960;BME280;39866;48.638;-2.020;2023-01-10T05:58:48;101442.31;;;11.89;72.89
53960;BME280;39866;48.638;-2.020;2023-01-10T06:01:13;101451.53;;;11.73;72.93
53960;BME280;39866;48.638;-2.020;2023-01-10T06:03:39;101457.06;;;11.64;73.56
53960;BME280;39866;48.638;-2.020;2023-01-10T06:06:04;101440.25;;;11.59;73.69
53960;BME280;39866;48.638;-2.020;2023-01-10T06:08:30;101442.41;;;11.83;72.79
53960;BME280;39866;48.638;-2.020;2023-01-10T06:10:55;101432.22;;;11.62;73.55
53960;BME280;39866;48.638;-2.020;2023-01-10T06:13:22;101424.66;;;11.84;72.77
53960;BME280;39866;48.638;-2.020;2023-01-10T06:15:47;101433.84;;;12.08;72.61
53960;BME280;39866;48.638;-2.020;2023-01-10T06:18:13;101435.53;;;11.73;73.78
53960;BME280;39866;48.638;-2.020;2023-01-10T06:20:40;101432.53;;;11.88;73.51
53960;BME280;39866;48.638;-2.020;2023-01-10T06:23:06;101419.09;;;11.93;73.05
53960;BME280;39866;48.638;-2.020;2023-01-10T06:25:32;101401.66;;;11.77;73.81
53960;BME280;39866;48.638;-2.020;2023-01-10T06:28:00;101419.13;;;11.51;74.18
53960;BME280;39866;48.638;-2.020;2023-01-10T06:30:25;101431.88;;;11.77;74.22
53960;BME280;39866;48.638;-2.020;2023-01-10T06:32:50;101417.31;;;11.94;73.69
53960;BME280;39866;48.638;-2.020;2023-01-10T06:35:16;101419.81;;;12.00;73.68
53960;BME280;39866;48.638;-2.020;2023-01-10T06:37:44;101426.81;;;12.04;73.30
53960;BME280;39866;48.638;-2.020;2023-01-10T06:40:10;101431.00;;;11.77;74.82
53960;BME280;39866;48.638;-2.020;2023-01-10T06:42:35;101444.34;;;11.77;74.62
53960;BME280;39866;48.638;-2.020;2023-01-10T06:45:01;101409.94;;;12.05;73.20
53960;BME280;39866;48.638;-2.020;2023-01-10T06:47:27;101399.09;;;12.11;72.98
53960;BME280;39866;48.638;-2.020;2023-01-10T06:49:52;101401.00;;;11.65;74.49
53960;BME280;39866;48.638;-2.020;2023-01-10T06:52:18;101407.94;;;11.74;75.15
53960;BME280;39866;48.638;-2.020;2023-01-10T06:54:43;101402.41;;;11.82;74.62
53960;BME280;39866;48.638;-2.020;2023-01-10T06:57:08;101416.19;;;12.02;74.09
53960;BME280;39866;48.638;-2.020;2023-01-10T06:59:34;101434.34;;;12.25;72.94
53960;BME280;39866;48.638;-2.020;2023-01-10T07:01:59;101432.78;;;12.15;73.09
53960;BME280;39866;48.638;-2.020;2023-01-10T07:04:24;101422.63;;;12.31;73.04
53960;BME280;39866;48.638;-2.020;2023-01-10T07:06:51;101421.78;;;12.29;72.90
53960;BME280;39866;48.638;-2.020;2023-01-10T07:09:16;101425.34;;;12.29;72.67
53960;BME280;39866;48.638;-2.020;2023-01-10T07:11:42;101413.09;;;12.21;73.19
53960;BME280;39866;48.638;-2.020;2023-01-10T07:14:07;101420.19;;;12.20;73.82
53960;BME280;39866;48.638;-2.020;2023-01-10T07:16:34;101424.66;;;12.20;73.57
53960;BME280;39866;48.638;-2.020;2023-01-10T07:18:59;101406.34;;;12.40;73.21
53960;BME280;39866;48.638;-2.020;2023-01-10T07:21:25;101415.09;;;12.47;73.01
53960;BME280;39866;48.638;-2.020;2023-01-10T07:23:50;101415.78;;;12.21;73.90
53960;BME280;39866;48.638;-2.020;2023-01-10T07:26:17;101411.13;;;12.27;73.62
53960;BME280;39866;48.638;-2.020;2023-01-10T07:28:50;101410.91;;;12.36;73.35
53960;BME280;39866;48.638;-2.020;2023-01-10T07:31:17;101409.00;;;12.42;73.67
53960;BME280;39866;48.638;-2.020;2023-01-10T07:33:42;101407.16;;;12.44;73.22
53960;BME280;39866;48.638;-2.020;2023-01-10T07:36:08;101395.28;;;12.55;73.77
53960;BME280;39866;48.638;-2.020;2023-01-10T07:38:33;101385.16;;;12.68;73.19
53960;BME280;39866;48.638;-2.020;2023-01-10T07:41:02;101380.31;;;12.50;73.67
53960;BME280;39866;48.638;-2.020;2023-01-10T07:43:28;101389.69;;;12.64;73.35
53960;BME280;39866;48.638;-2.020;2023-01-10T07:45:53;101388.75;;;12.67;73.46
53960;BME280;39866;48.638;-2.020;2023-01-10T07:48:18;101392.75;;;12.51;74.16
53960;BME280;39866;48.638;-2.020;2023-01-10T07:50:44;101374.19;;;12.77;73.38
53960;BME280;39866;48.638;-2.020;2023-01-10T07:53:09;101388.47;;;12.78;73.37
53960;BME280;39866;48.638;-2.020;2023-01-10T07:55:35;101387.88;;;12.67;73.72
53960;BME280;39866;48.638;-2.020;2023-01-10T07:58:03;101389.16;;;12.52;74.40
53960;BME280;39866;48.638;-2.020;2023-01-10T08:00:28;101384.44;;;12.61;74.03
53960;BME280;39866;48.638;-2.020;2023-01-10T08:02:55;101380.59;;;12.72;74.63
53960;BME280;39866;48.638;-2.020;2023-01-10T08:05:23;101386.75;;;12.75;74.15
53960;BME280;39866;48.638;-2.020;2023-01-10T08:07:48;101384.19;;;13.02;73.23
53960;BME280;39866;48.638;-2.020;2023-01-10T08:10:14;101382.44;;;13.02;73.44
53960;BME280;39866;48.638;-2.020;2023-01-10T08:12:39;101377.91;;;13.04;73.19
53960;BME280;39866;48.638;-2.020;2023-01-10T08:15:05;101369.78;;;12.76;74.30
53960;BME280;39866;48.638;-2.020;2023-01-10T08:17:34;101362.44;;;13.14;73.16
53960;BME280;39866;48.638;-2.020;2023-01-10T08:20:00;101358.25;;;13.05;73.87
53960;BME280;39866;48.638;-2.020;2023-01-10T08:22:26;101358.88;;;13.15;73.78
53960;BME280;39866;48.638;-2.020;2023-01-10T08:24:51;101368.34;;;12.96;74.27
53960;BME280;39866;48.638;-2.020;2023-01-10T08:27:17;101365.69;;;12.96;73.76
53960;BME280;39866;48.638;-2.020;2023-01-10T08:29:42;101371.09;;;12.94;74.58
53960;BME280;39866;48.638;-2.020;2023-01-10T08:32:08;101371.75;;;13.02;74.45
53960;BME280;39866;48.638;-2.020;2023-01-10T08:34:33;101375.09;;;12.78;74.40
53960;BME280;39866;48.638;-2.020;2023-01-10T08:36:58;101378.59;;;12.80;75.18
53960;BME280;39866;48.638;-2.020;2023-01-10T08:39:24;101373.81;;;13.22;74.31
53960;BME280;39866;48.638;-2.020;2023-01-10T08:41:52;101373.03;;;12.87;74.80
53960;BME280;39866;48.638;-2.020;2023-01-10T08:44:17;101377.91;;;13.35;73.93
53960;BME280;39866;48.638;-2.020;2023-01-10T08:46:43;101374.97;;;13.45;73.36
53960;BME280;39866;48.638;-2.020;2023-01-10T08:49:08;101383.78;;;13.47;73.58
53960;BME280;39866;48.638;-2.020;2023-01-10T08:51:34;101366.66;;;13.54;73.48
53960;BME280;39866;48.638;-2.020;2023-01-10T08:54:00;101369.16;;;13.60;72.99
53960;BME280;39866;48.638;-2.020;2023-01-10T08:56:25;101363.66;;;13.63;72.99
53960;BME280;39866;48.638;-2.020;2023-01-10T08:58:51;101369.44;;;13.20;74.59
53960;BME280;39866;48.638;-2.020;2023-01-10T09:01:16;101356.66;;;13.31;74.81
53960;BME280;39866;48.638;-2.020;2023-01-10T09:03:42;101353.72;;;13.40;74.59
53960;BME280;39866;48.638;-2.020;2023-01-10T09:06:07;101349.66;;;13.27;75.27
53960;BME280;39866;48.638;-2.020;2023-01-10T09:08:34;101355.69;;;13.33;75.39
53960;BME280;39866;48.638;-2.020;2023-01-10T09:11:00;101360.25;;;13.59;74.42
53960;BME280;39866;48.638;-2.020;2023-01-10T09:13:27;101363.31;;;13.46;75.00
53960;BME280;39866;48.638;-2.020;2023-01-10T09:15:53;101367.47;;;13.26;75.67
53960;BME280;39866;48.638;-2.020;2023-01-10T09:18:18;101355.91;;;13.55;75.57
53960;BME280;39866;48.638;-2.020;2023-01-10T09:20:44;101361.22;;;13.85;74.42
53960;BME280;39866;48.638;-2.020;2023-01-10T09:23:13;101361.31;;;13.82;74.31
53960;BME280;39866;48.638;-2.020;2023-01-10T09:25:42;101365.16;;;14.00;73.21
53960;BME280;39866;48.638;-2.020;2023-01-10T09:28:07;101359.97;;;13.95;73.94
53960;BME280;39866;48.638;-2.020;2023-01-10T09:30:33;101357.34;;;13.94;74.22
53960;BME280;39866;48.638;-2.020;2023-01-10T09:32:59;101362.41;;;14.03;74.11
53960;BME280;39866;48.638;-2.020;2023-01-10T09:35:25;101373.34;;;13.95;74.42
53960;BME280;39866;48.638;-2.020;2023-01-10T09:37:56;101371.28;;;14.05;73.75
53960;BME280;39866;48.638;-2.020;2023-01-10T09:40:32;101372.34;;;14.26;72.94
53960;BME280;39866;48.638;-2.020;2023-01-10T09:48:17;101383.25;;;14.46;72.69
53960;BME280;39866;48.638;-2.020;2023-01-10T09:53:30;101379.63;;;14.49;72.48
53960;BME280;39866;48.638;-2.020;2023-01-10T09:55:59;101385.94;;;14.20;73.64
53960;BME280;39866;48.638;-2.020;2023-01-10T09:58:27;101387.66;;;14.49;72.77
53960;BME280;39866;48.638;-2.020;2023-01-10T10:00:59;101382.25;;;14.50;72.92
53960;BME280;39866;48.638;-2.020;2023-01-10T10:06:11;101387.69;;;14.74;72.34
53960;BME280;39866;48.638;-2.020;2023-01-10T10:08:41;101385.81;;;14.76;72.36
53960;BME280;39866;48.638;-2.020;2023-01-10T10:11:16;101373.81;;;14.61;72.85
53960;BME280;39866;48.638;-2.020;2023-01-10T10:13:58;101377.50;;;14.58;73.17
53960;BME280;39866;48.638;-2.020;2023-01-10T10:17:22;101378.38;;;14.59;73.41
53960;BME280;39866;48.638;-2.020;2023-01-10T10:22:39;101374.25;;;14.49;74.14
53960;BME280;39866;48.638;-2.020;2023-01-10T10:31:06;101363.84;;;14.90;73.11
53960;BME280;39866;48.638;-2.020;2023-01-10T10:36:42;101377.50;;;14.83;73.96
53960;BME280;39866;48.638;-2.020;2023-01-10T10:39:15;101360.91;;;14.97;73.68
53960;BME280;39866;48.638;-2.020;2023-01-10T10:41:43;101371.59;;;14.74;75.03
53960;BME280;39866;48.638;-2.020;2023-01-10T10:46:57;101362.88;;;14.92;74.52
53960;BME280;39866;48.638;-2.020;2023-01-10T10:49:34;101354.63;;;15.22;73.47
53960;BME280;39866;48.638;-2.020;2023-01-10T10:52:02;101360.84;;;15.22;74.26
53960;BME280;39866;48.638;-2.020;2023-01-10T10:54:29;101345.94;;;15.15;73.83
53960;BME280;39866;48.638;-2.020;2023-01-10T10:56:55;101341.75;;;15.31;74.44
53960;BME280;39866;48.638;-2.020;2023-01-10T10:59:22;101335.91;;;15.44;73.86
53960;BME280;39866;48.638;-2.020;2023-01-10T11:01:48;101336.00;;;15.63;73.27
53960;BME280;39866;48.638;-2.020;2023-01-10T11:04:18;101338.44;;;15.70;73.51
53960;BME280;39866;48.638;-2.020;2023-01-10T11:06:45;101334.88;;;15.70;73.13
53960;BME280;39866;48.638;-2.020;2023-01-10T11:09:15;101341.13;;;15.70;73.75
53960;BME280;39866;48.638;-2.020;2023-01-10T11:11:45;101312.09;;;15.80;73.29
53960;BME280;39866;48.638;-2.020;2023-01-10T11:14:11;101326.50;;;15.77;72.65
53960;BME280;39866;48.638;-2.020;2023-01-10T11:16:41;101321.63;;;15.87;73.08
53960;BME280;39866;48.638;-2.020;2023-01-10T11:21:46;101310.28;;;15.80;73.18
53960;BME280;39866;48.638;-2.020;2023-01-10T11:24:22;101306.25;;;15.91;72.61
53960;BME280;39866;48.638;-2.020;2023-01-10T11:26:50;101294.75;;;16.09;72.51
53960;BME280;39866;48.638;-2.020;2023-01-10T11:32:19;101293.94;;;16.27;71.64
53960;BME280;39866;48.638;-2.020;2023-01-10T11:34:52;101285.75;;;16.51;71.39
53960;BME280;39866;48.638;-2.020;2023-01-10T11:37:22;101277.94;;;16.45;71.23
53960;BME280;39866;48.638;-2.020;2023-01-10T11:40:07;101282.78;;;16.37;71.26
53960;BME280;39866;48.638;-2.020;2023-01-10T11:42:34;101274.72;;;16.37;70.78
53960;BME280;39866;48.638;-2.020;2023-01-10T11:45:29;101259.81;;;16.50;70.81
53960;BME280;39866;48.638;-2.020;2023-01-10T11:50:31;101261.81;;;16.45;70.15
53960;BME280;39866;48.638;-2.020;2023-01-10T11:52:57;101255.72;;;16.62;69.87
53960;BME280;39866;48.638;-2.020;2023-01-10T11:55:31;101260.78;;;16.68;69.23
53960;BME280;39866;48.638;-2.020;2023-01-10T11:58:09;101261.78;;;16.65;69.54
53960;BME280;39866;48.638;-2.020;2023-01-10T12:00:45;101254.16;;;16.76;69.00
53960;BME280;39866;48.638;-2.020;2023-01-10T12:03:16;101257.50;;;16.61;69.32
53960;BME280;39866;48.638;-2.020;2023-01-10T12:05:57;101252.06;;;16.83;68.59
53960;BME280;39866;48.638;-2.020;2023-01-10T12:08:35;101235.13;;;17.00;68.05
53960;BME280;39866;48.638;-2.020;2023-01-10T12:13:43;101236.91;;;17.18;67.41
53960;BME280;39866;48.638;-2.020;2023-01-10T12:16:37;101231.34;;;17.04;68.02
53960;BME280;39866;48.638;-2.020;2023-01-10T12:19:08;101232.94;;;17.08;68.00
53960;BME280;39866;48.638;-2.020;2023-01-10T12:21:41;101233.28;;;16.81;68.00
53960;BME280;39866;48.638;-2.020;2023-01-10T12:26:40;101235.72;;;17.06;67.62
53960;BME280;39866;48.638;-2.020;2023-01-10T12:29:17;101232.09;;;17.44;66.58
53960;BME280;39866;48.638;-2.020;2023-01-10T12:31:43;101225.72;;;16.90;67.26
53960;BME280;39866;48.638;-2.020;2023-01-10T12:34:18;101222.91;;;17.12;67.51
53960;BME280;39866;48.638;-2.020;2023-01-10T12:36:56;101223.78;;;17.12;67.26
53960;BME280;39866;48.638;-2.020;2023-01-10T12:39:31;101215.22;;;17.04;67.33
53960;BME280;39866;48.638;-2.020;2023-01-10T12:45:13;101211.84;;;17.18;66.37
53960;BME280;39866;48.638;-2.020;2023-01-10T12:50:14;101215.78;;;17.11;67.01
53960;BME280;39866;48.638;-2.020;2023-01-10T12:55:45;101186.88;;;17.50;65.40
53960;BME280;39866;48.638;-2.020;2023-01-10T12:58:26;101207.72;;;17.47;65.18
53960;BME280;39866;48.638;-2.020;2023-01-10T13:00:55;101209.81;;;17.23;65.98
53960;BME280;39866;48.638;-2.020;2023-01-10T13:03:26;101204.84;;;17.32;65.64
53960;BME280;39866;48.638;-2.020;2023-01-10T13:05:53;101207.00;;;17.07;66.57
53960;BME280;39866;48.638;-2.020;2023-01-10T13:08:22;101205.44;;;17.01;66.90
53960;BME280;39866;48.638;-2.020;2023-01-10T13:10:52;101207.06;;;17.42;65.79
53960;BME280;39866;48.638;-2.020;2023-01-10T13:16:25;101201.44;;;17.29;66.02
53960;BME280;39866;48.638;-2.020;2023-01-10T13:19:18;101186.28;;;17.26;65.83
53960;BME280;39866;48.638;-2.020;2023-01-10T13:21:46;101193.50;;;17.26;65.83
53960;BME280;39866;48.638;-2.020;2023-01-10T13:26:49;101185.78;;;17.18;66.14
53960;BME280;39866;48.638;-2.020;2023-01-10T13:29:37;101187.25;;;17.25;65.74
53960;BME280;39866;48.638;-2.020;2023-01-10T13:32:22;101176.97;;;16.97;66.43
53960;BME280;39866;48.638;-2.020;2023-01-10T13:34:50;101183.34;;;17.14;65.90
53960;BME280;39866;48.638;-2.020;2023-01-10T13:37:28;101174.16;;;17.18;66.27
53960;BME280;39866;48.638;-2.020;2023-01-10T13:39:57;101173.00;;;17.23;66.10
53960;BME280;39866;48.638;-2.020;2023-01-10T13:42:34;101159.94;;;17.16;65.84
53960;BME280;39866;48.638;-2.020;2023-01-10T13:45:24;101168.91;;;17.33;65.31
53960;BME280;39866;48.638;-2.020;2023-01-10T13:52:46;101156.16;;;17.37;65.54
53960;BME280;39866;48.638;-2.020;2023-01-10T14:09:02;101129.75;;;17.09;66.85
53960;BME280;39866;48.638;-2.020;2023-01-10T14:11:35;101122.00;;;17.03;66.80
53960;BME280;39866;48.638;-2.020;2023-01-10T14:14:25;101117.78;;;16.97;66.83
53960;BME280;39866;48.638;-2.020;2023-01-10T14:16:54;101118.81;;;16.95;66.97
53960;BME280;39866;48.638;-2.020;2023-01-10T14:19:29;101129.88;;;17.25;66.10
53960;BME280;39866;48.638;-2.020;2023-01-10T14:21:57;101113.72;;;17.07;66.68
53960;BME280;39866;48.638;-2.020;2023-01-10T14:26:49;101115.75;;;17.02;66.39
53960;BME280;39866;48.638;-2.020;2023-01-10T14:29:17;101112.78;;;17.26;65.64
53960;BME280;39866;48.638;-2.020;2023-01-10T14:31:52;101117.00;;;17.31;65.55
53960;BME280;39866;48.638;-2.020;2023-01-10T14:34:21;101134.06;;;17.30;65.95
53960;BME280;39866;48.638;-2.020;2023-01-10T14:37:00;101117.47;;;17.40;65.57
53960;BME280;39866;48.638;-2.020;2023-01-10T14:39:27;101102.56;;;17.15;65.96
53960;BME280;39866;48.638;-2.020;2023-01-10T14:41:57;101118.78;;;17.14;66.09
53960;BME280;39866;48.638;-2.020;2023-01-10T14:46:58;101116.16;;;17.12;66.41